EDDL/DUS METAR and TAF weather

Enter ICAO airport designator
Station Type Date Time Source
EDDL METAR 2019/08/24 09:20 UTC NOAA

EDDL 240920Z 11004KT 020V150 CAVOK 25/10 Q1022 NOSIG


Station Type Date Time Source
EDDL Decoded METAR 2019/08/24 09:20 UTC NOAA

Station name not available
Aug 24, 2019 - 05:20 AM EDT / 2019.08.24 0920 UTC
Wind: from the ESE (110 degrees) at 5 MPH (4 KT) (direction variable):0
Visibility: greater than 7 mile(s):0
Temperature: 77 F (25 C)
Dew Point: 50 F (10 C)
Relative Humidity: 38%
Pressure (altimeter): 30.18 in. Hg (1022 hPa)
ob: EDDL 240920Z 11004KT 020V150 CAVOK 25/10 Q1022 NOSIG
cycle: 9

Station Type Date Time Source
EDDL TAF 2019/08/24 06:28 UTC NOAA

TAF EDDL 240500Z 2406/2512 13004KT CAVOK
BECMG 2409/2411 06006KT
BECMG 2421/2423 12003KT

Example: see airport list